METAR Data
IDs: Format: Raw Decoded Include TAF

Data at: 0047 UTC 31 May 2020

METAR for:KHCR (Heber City Muni, UT, US)
Text:KHCR 310035Z AUTO 14004KT 10SM -RA SCT013 SCT026 BKN095 19/08 A2999 RMK AO2
Temperature: 19.0°C ( 66°F)
Dewpoint: 8.0°C ( 46°F) [RH = 49%]
Pressure (altimeter):29.99 inches Hg (1015.7 mb)
Winds:from the SE (140 degrees) at 5 MPH (4 knots; 2.1 m/s)
Visibility:10 or more sm (16+ km)
Ceiling:9500 feet AGL
Clouds: scattered clouds at 1300 feet AGL, scattered clouds at 2600 feet AGL, broken clouds at 9500 feet AGL
Weather:-RA (light rain)
QC Flag:automated observation with no human augmentation